• Join FlightAware (Why Join?)
  • Login
  • US Flag 
12:20AM EST


 

Airport Tracker/Info


-or-


 

Live Flight TrackerFlight Track Log ✈ FFT143 ✈ 24-Aug-2013 ✈ KIAH - KDEN

Flight Track Log - Related Links

Times and Time Zones

All times are in EDT time to prevent confusion due to time zone crossing. See the FFT143 flight status page for this flight to view local times or setup timezone preferences in your user account.

Time Position Orientation Groundspeed Altitude Reporting Facility
EDT Latitude Longitude Course Direction KTS MPH feet Rate Location/Type
07:12AM 29.9630 -95.3140 17° North 179 206 1,700  Level FlightAware
07:12AM 29.9740 -95.3130 North 189 217 1,900 960 Climbing FlightAware
07:12AM 29.9850 -95.3120 North 211 243 2,100 1,333 Climbing FlightAware
07:13AM 30.0100 -95.3110 North 245 282 2,700 2,192 Climbing FlightAware
07:13AM 30.0440 -95.3210 346° North 266 306 4,000 3,000 Climbing FlightAware
07:13AM 30.0640 -95.3350 329° Northwest 268 308 5,100 3,150 Climbing FlightAware
07:14AM 30.0870 -95.3500 331° Northwest 275 316 6,100 2,927 Climbing FlightAware
07:14AM 30.1110 -95.3660 330° Northwest 282 325 7,100 2,933 Climbing FlightAware
07:14AM 30.1380 -95.3840 330° Northwest 285 328 8,300 2,864 Climbing FlightAware
07:15AM 30.1620 -95.3990 332° Northwest 291 335 9,200 2,464 Climbing FlightAware
07:15AM 30.2030 -95.4270 329° Northwest 308 354 10,600 1,970 Climbing FlightAware
07:16AM 30.2450 -95.4550 330° Northwest 336 387 11,400 2,239 Climbing FlightAware
07:17AM 30.2950 -95.4890 330° Northwest 340 391 13,100 2,583 Climbing FlightAware
07:17AM 30.3440 -95.5220 330° Northwest 345 397 14,500 2,055 Climbing FlightAware
07:18AM 30.3970 -95.5580 330° Northwest 364 419 15,600 1,886 Climbing FlightAware
07:18AM 30.4440 -95.5890 330° Northwest 370 426 16,700 2,031 Climbing FlightAware
07:19AM 30.4940 -95.6230 330° Northwest 377 434 17,800 2,000 Climbing FlightAware
07:19AM 30.5570 -95.6630 331° Northwest 384 442 19,100 1,775 Climbing FlightAware
07:20AM 30.6000 -95.6860 335° Northwest 390 449 19,900 1,791 Climbing FlightAware
07:21AM 30.6660 -95.7210 335° Northwest 396 456 21,100 1,750 Climbing FlightAware
07:21AM 30.7230 -95.7520 335° Northwest 402 463 22,000 1,690 Climbing FlightAware
07:22AM 30.7850 -95.7850 335° Northwest 407 468 23,100 1,588 Climbing FlightAware
07:22AM 30.8410 -95.8150 335° Northwest 415 478 23,800 1,333 Climbing FlightAware
07:23AM 30.8960 -95.8450 335° Northwest 422 486 24,500 1,457 Climbing FlightAware
07:23AM 30.9680 -95.8830 336° Northwest 427 491 25,500 1,385 Climbing FlightAware
07:24AM 31.0360 -95.9200 335° Northwest 435 501 26,300 1,352 Climbing FlightAware
07:25AM 31.0950 -95.9520 335° Northwest 439 505 27,100 1,545 Climbing FlightAware
07:25AM 31.1600 -95.9810 339° North 438 504 28,000 1,417 Climbing FlightAware
07:26AM 31.2310 -96.0090 341° North 443 510 28,800 1,216 Climbing FlightAware
07:26AM 31.3040 -96.0370 342° North 449 517 29,500 1,114 Climbing FlightAware
07:27AM 31.3720 -96.0640 341° North 454 522 30,100 1,147 Climbing FlightAware
07:28AM 31.4390 -96.0900 342° North 456 525 30,800 1,200 Climbing FlightAware
07:28AM 31.5090 -96.1280 335° Northwest 463 533 31,500 1,391 Climbing FlightAware
07:29AM 31.5650 -96.1740 325° Northwest 462 532 32,400 1,433 Climbing FlightAware
07:29AM 31.6260 -96.2270 324° Northwest 462 532 33,100 1,130 Climbing FlightAware
07:30AM 31.6850 -96.2770 324° Northwest 464 534 33,700 1,114 Climbing FlightAware
07:30AM 31.7470 -96.3310 323° Northwest 464 534 34,400 1,268 Climbing FlightAware
07:31AM 31.8040 -96.3810 323° Northwest 460 529 35,200 1,629 Climbing FlightAware
07:32AM 31.8670 -96.4360 323° Northwest 447 514 36,300 1,583 Climbing FlightAware
07:32AM 31.9260 -96.4870 324° Northwest 438 504 37,100 892 Climbing FlightAware
07:33AM 31.9880 -96.5420 323° Northwest 442 509 37,400 537 Climbing FlightAware
07:33AM 32.0370 -96.5840 324° Northwest 442 509 37,700 529 Climbing FlightAware
07:34AM 32.1000 -96.6390 324° Northwest 445 512 38,000 243 Climbing FlightAware
07:35AM 32.1590 -96.6920 323° Northwest 442 509 38,000  Level FlightAware
07:35AM 32.2160 -96.7410 324° Northwest 442 509 38,000  Level FlightAware
07:36AM 32.2700 -96.7890 323° Northwest 440 506 38,000  Level FlightAware
07:36AM 32.3270 -96.8390 323° Northwest 441 507 38,000  Level FlightAware
07:37AM 32.3820 -96.8870 324° Northwest 442 509 38,000  Level FlightAware
07:38AM 32.4470 -96.9450 323° Northwest 443 510 38,000  Level FlightAware
07:38AM 32.4970 -96.9900 323° Northwest 447 514 38,000  Level FlightAware
07:39AM 32.5590 -97.0440 324° Northwest 450 518 38,000  Level FlightAware
07:39AM 32.6190 -97.0970 323° Northwest 452 520 38,000 88 Level FlightAware
07:40AM 32.6740 -97.1470 323° Northwest 455 524 38,100 91 Climbing FlightAware
07:40AM 32.7320 -97.1990 323° Northwest 456 525 38,100 -83 Level FlightAware
07:41AM 32.7940 -97.2540 323° Northwest 457 526 38,000 -83 Descending FlightAware
07:42AM 32.8520 -97.3060 323° Northwest 457 526 38,000  Level FlightAware
07:42AM 32.9120 -97.3590 323° Northwest 456 525 38,000  Level FlightAware
07:43AM 32.9740 -97.4160 322° Northwest 457 526 38,000  Level FlightAware
07:43AM 33.0350 -97.4700 323° Northwest 458 527 38,000  Level FlightAware
07:44AM 33.0850 -97.5150 323° Northwest 458 527 38,000  Level FlightAware
07:45AM 33.1500 -97.5740 323° Northwest 457 526 38,000  Level FlightAware
07:45AM 33.2070 -97.6260 323° Northwest 458 527 38,000  Level FlightAware
07:46AM 33.2650 -97.6780 323° Northwest 457 526 38,000  Level FlightAware
07:46AM 33.3280 -97.7350 323° Northwest 457 526 38,000  Level FlightAware
07:47AM 33.3800 -97.7820 323° Northwest 456 525 38,000  Level FlightAware
07:47AM 33.4420 -97.8390 323° Northwest 458 527 38,000  Level FlightAware
07:48AM 33.5030 -97.8940 323° Northwest 457 526 38,000  Level FlightAware
07:49AM 33.5560 -97.9430 322° Northwest 457 526 38,000  Level FlightAware
07:49AM 33.6140 -97.9960 323° Northwest 456 525 38,000  Level FlightAware
07:50AM 33.6750 -98.0520 323° Northwest 456 525 38,000  Level FlightAware
07:50AM 33.7410 -98.1120 323° Northwest 456 525 38,000  Level FlightAware
07:51AM 33.7980 -98.1650 322° Northwest 457 526 38,000  Level FlightAware
07:51AM 33.8520 -98.2150 322° Northwest 457 526 38,000  Level FlightAware
07:52AM 33.9150 -98.2730 323° Northwest 457 526 38,000  Level FlightAware
07:53AM 33.9720 -98.3260 322° Northwest 456 525 38,000  Level FlightAware
07:53AM 34.0350 -98.3840 323° Northwest 456 525 38,000  Level FlightAware
07:54AM 34.0880 -98.4330 323° Northwest 454 522 38,000  Level FlightAware
07:54AM 34.1450 -98.4860 322° Northwest 453 521 38,000  Level FlightAware
07:55AM 34.2080 -98.5450 322° Northwest 452 520 38,000  Level FlightAware
07:56AM 34.2580 -98.5920 322° Northwest 452 520 38,000  Level FlightAware
07:56AM 34.3160 -98.6460 322° Northwest 451 519 38,000  Level FlightAware
07:57AM 34.3790 -98.7050 322° Northwest 452 520 38,000  Level FlightAware
07:57AM 34.4390 -98.7620 322° Northwest 452 520 38,000  Level FlightAware
07:58AM 34.4940 -98.8130 323° Northwest 453 521 38,000  Level FlightAware
07:59AM 34.5520 -98.8670 323° Northwest 453 521 38,000  Level FlightAware
07:59AM 34.6130 -98.9250 322° Northwest 453 521 38,000  Level FlightAware
08:00AM 34.6710 -98.9800 322° Northwest 453 521 38,000  Level FlightAware
08:00AM 34.7230 -99.0290 322° Northwest 452 520 38,000  Level FlightAware
08:01AM 34.7830 -99.0870 322° Northwest 451 519 38,000  Level FlightAware
08:01AM 34.8440 -99.1440 323° Northwest 451 519 38,000  Level FlightAware
08:02AM 34.9010 -99.1990 322° Northwest 450 518 38,000  Level FlightAware
08:03AM 34.9550 -99.2500 322° Northwest 451 519 38,000  Level FlightAware
08:03AM 35.0140 -99.3070 322° Northwest 452 520 38,000  Level FlightAware
08:04AM 35.0760 -99.3660 322° Northwest 453 521 38,000  Level FlightAware
08:04AM 35.1280 -99.4160 322° Northwest 454 522 38,000  Level FlightAware
08:05AM 35.1870 -99.4720 322° Northwest 455 524 38,000 86 Level FlightAware
08:06AM 35.2440 -99.5270 322° Northwest 455 524 38,100  Climbing FlightAware
08:06AM 35.3010 -99.5820 322° Northwest 454 522 38,000 -85 Descending FlightAware
08:07AM 35.3610 -99.6410 321° Northwest 454 522 38,000  Level FlightAware
08:07AM 35.4190 -99.6960 322° Northwest 453 521 38,000  Level FlightAware
08:08AM 35.4780 -99.7530 322° Northwest 451 519 38,000  Level FlightAware
08:08AM 35.5290 -99.8030 321° Northwest 451 519 38,000  Level FlightAware
08:09AM 35.5920 -99.8640 322° Northwest 451 519 38,000  Level FlightAware
08:10AM 35.6570 -99.9270 322° Northwest 450 518 38,000  Level FlightAware
08:10AM 35.7150 -99.9850 321° Northwest 451 519 38,000  Level FlightAware
08:11AM 35.7740 -100.0420 322° Northwest 451 519 38,000  Level FlightAware
08:12AM 35.8320 -100.1000 321° Northwest 452 520 38,000  Level FlightAware
08:12AM 35.8960 -100.1630 321° Northwest 453 521 38,000  Level FlightAware
08:13AM 35.9570 -100.2230 321° Northwest 455 524 38,000  Level FlightAware
08:13AM 36.0150 -100.2790 322° Northwest 456 525 38,000 83 Level FlightAware
08:14AM 36.0760 -100.3400 321° Northwest 456 525 38,100  Climbing FlightAware
08:14AM 36.1280 -100.3910 322° Northwest 455 524 38,000 -88 Descending FlightAware
08:15AM 36.1850 -100.4480 321° Northwest 455 524 38,000  Level FlightAware
08:16AM 36.2470 -100.5090 322° Northwest 454 522 38,000  Level FlightAware
08:16AM 36.2980 -100.5610 321° Northwest 453 521 38,000  Level FlightAware
08:17AM 36.3560 -100.6190 321° Northwest 452 520 38,000  Level FlightAware
08:17AM 36.4150 -100.6780 321° Northwest 452 520 38,000  Level FlightAware
08:18AM 36.4720 -100.7350 321° Northwest 453 521 38,000  Level FlightAware
08:19AM 36.5280 -100.7920 321° Northwest 454 522 38,000  Level FlightAware
08:19AM 36.5860 -100.8500 321° Northwest 455 524 38,000  Level FlightAware
08:20AM 36.6390 -100.9020 322° Northwest 456 525 38,000  Level FlightAware
08:20AM 36.6980 -100.9620 321° Northwest 457 526 38,000  Level FlightAware
08:21AM 36.7510 -101.0180 320° Northwest 457 526 38,000  Level FlightAware
08:22AM 36.8010 -101.0700 320° Northwest 457 526 38,000  Level FlightAware
08:22AM 36.8520 -101.1240 320° Northwest 457 526 38,000  Level FlightAware
08:23AM 36.9010 -101.1760 320° Northwest 457 526 38,000  Level FlightAware
08:23AM 36.9510 -101.2280 320° Northwest 457 526 38,000  Level FlightAware
08:24AM 37.0010 -101.2800 320° Northwest 457 526 38,000  Level FlightAware
08:25AM 37.0500 -101.3320 320° Northwest 457 526 38,000  Level FlightAware
08:25AM 37.1000 -101.3840 320° Northwest 457 526 38,000  Level FlightAware
08:26AM 37.1490 -101.4360 320° Northwest 457 526 38,000  Level FlightAware
08:26AM 37.1990 -101.4880 320° Northwest 457 526 38,000  Level FlightAware
08:27AM 37.2500 -101.5420 320° Northwest 457 526 38,000  Level FlightAware
08:28AM 37.2990 -101.5940 320° Northwest 457 526 38,000  Level FlightAware
08:28AM 37.3490 -101.6470 320° Northwest 457 526 38,000  Level FlightAware
08:29AM 37.3980 -101.6990 320° Northwest 457 526 38,000  Level FlightAware
08:29AM 37.4480 -101.7510 320° Northwest 457 526 38,000  Level FlightAware
08:30AM 37.4990 -101.8050 320° Northwest 457 526 38,000  Level FlightAware
08:31AM 37.6889 -101.9844 320° Northwest 461 531 38,000  Level Kansas City Center
08:36AM 38.2420 -102.6920 320° Northwest 481 554 38,000  Level FlightAware
08:37AM 38.2900 -102.7600 312° West 481 554 38,000  Level FlightAware
08:38AM 38.3550 -102.8460 314° West 475 547 38,000  Level FlightAware
08:38AM 38.4070 -102.9180 313° West 474 545 38,000  Level FlightAware
08:39AM 38.4590 -102.9910 312° West 474 545 38,000  Level FlightAware
08:39AM 38.5130 -103.0650 313° West 474 545 38,000  Level FlightAware
08:40AM 38.5610 -103.1330 312° West 476 548 38,000 -265 Level FlightAware
08:41AM 38.6130 -103.2050 313° West 480 552 37,700 -1,941 Descending FlightAware
08:41AM 38.6620 -103.2740 312° West 489 563 35,800 -3,583 Descending FlightAware
08:42AM 38.7240 -103.3610 312° West 491 565 33,400 -3,730 Descending FlightAware
08:42AM 38.7750 -103.4330 312° West 490 564 31,200 -3,739 Descending FlightAware
08:43AM 38.8290 -103.5080 313° West 489 563 29,100 -3,224 Descending FlightAware
08:44AM 38.8760 -103.5760 312° West 477 549 27,600 -2,735 Descending FlightAware
08:44AM 38.9310 -103.6520 313° West 463 533 26,000 -2,750 Descending FlightAware
08:45AM 38.9810 -103.7240 312° West 454 522 24,300 -2,870 Descending FlightAware
08:45AM 39.0260 -103.7880 312° West 442 509 22,700 -3,097 Descending FlightAware
08:46AM 39.0660 -103.8450 312° West 434 499 21,100 -3,045 Descending FlightAware
08:46AM 39.1160 -103.9170 312° West 414 476 19,300 -2,270 Descending FlightAware
08:47AM 39.1610 -103.9810 312° West 397 457 18,300 -1,588 Descending FlightAware
08:48AM 39.2000 -104.0370 312° West 382 440 17,500 -1,059 Descending FlightAware
08:48AM 39.2390 -104.0930 312° West 352 405 17,100 -686 Descending FlightAware
08:49AM 39.2800 -104.1390 319° Northwest 336 387 16,700 -818 Descending FlightAware
08:49AM 39.3250 -104.1680 334° Northwest 333 383 16,200 -844 Descending FlightAware
08:50AM 39.3730 -104.1730 355° North 331 381 15,800 -971 Descending FlightAware
08:50AM 39.4290 -104.1780 356° North 329 379 15,100 -1,304 Descending FlightAware
08:51AM 39.4760 -104.1830 355° North 327 376 14,300 -1,457 Descending FlightAware
08:52AM 39.5340 -104.1900 355° North 323 372 13,400 -1,233 Descending FlightAware
08:52AM 39.5860 -104.1950 356° North 306 352 12,800 -417 Descending FlightAware
08:53AM 39.6340 -104.2000 355° North 274 315 12,900 -441 Climbing FlightAware
08:53AM 39.6730 -104.2060 353° North 273 314 12,300 -1,250 Descending FlightAware
08:54AM 39.6900 -104.2210 326° Northwest 270 311 11,900 -1,375 Descending FlightAware
08:54AM 39.7160 -104.2590 312° West 267 307 11,200 -1,406 Descending FlightAware
08:55AM 39.7410 -104.2980 310° West 270 311 10,400 -1,448 Descending FlightAware
08:55AM 39.7620 -104.3300 310° West 261 300 9,800 -1,304 Descending FlightAware
08:55AM 39.7770 -104.3540 309° West 257 296 9,400 -1,091 Descending FlightAware
08:56AM 39.7950 -104.3800 312° West 244 281 9,000 -955 Descending FlightAware
08:56AM 39.8100 -104.4030 310° West 224 258 8,700 -938 Descending FlightAware
08:56AM 39.8170 -104.4140 310° West 217 250 8,500 -1,000 Descending FlightAware
08:57AM 39.8320 -104.4390 308° West 201 231 8,100 -1,227 Descending FlightAware
08:57AM 39.8440 -104.4570 311° West 203 234 7,600 -1,313 Descending FlightAware
08:57AM 39.8510 -104.4680 310° West 198 228 7,400 -750 Descending FlightAware
08:58AM 39.8620 -104.4860 309° West 190 219 7,200 -833 Descending FlightAware
08:58AM 39.8690 -104.5020 300° West 183 211 6,900 -1,167 Descending FlightAware
08:58AM 39.8740 -104.5230 287° West 182 209 6,500 -1,059 Descending FlightAware
08:58AM 39.8750 -104.5380 275° West 175 201 6,300 -789 Descending FlightAware
08:59AM 39.8770 -104.5610 276° West 151 174 6,000 -714 Descending FlightAware
08:59AM 39.8770 -104.5780 270° West 146 168 5,800 -632 Descending FlightAware
08:59AM 39.8770 -104.5940 270° West 142 163 5,600 -714 Descending FlightAware
09:00AM 39.8770 -104.6130 270° West 138 159 5,300 -321 Descending FlightAware
09:00AM 39.8770 -104.6360 270° West 138 159 5,300  Level FlightAware